createdAt,value
2022-12-14T00:00:02.308Z,-4.05
2022-12-14T00:02:42.478Z,-4.08
2022-12-14T00:05:12.271Z,-4.07
2022-12-14T00:07:42.113Z,-4.10
2022-12-14T00:10:12.467Z,-4.06
2022-12-14T00:12:44.763Z,-4.05
2022-12-14T00:15:14.371Z,-4.05
2022-12-14T00:17:44.271Z,-4.06
2022-12-14T00:20:14.389Z,-4.06
2022-12-14T00:22:44.019Z,-4.06
2022-12-14T00:25:13.781Z,-4.07
2022-12-14T00:27:47.889Z,-4.06
2022-12-14T00:30:19.187Z,-4.06
2022-12-14T00:32:49.365Z,-4.03
2022-12-14T00:35:20.495Z,-4.01
2022-12-14T00:37:50.065Z,-4.01
2022-12-14T00:40:19.915Z,-4.05
2022-12-14T00:42:52.231Z,-4.03
2022-12-14T00:45:21.957Z,-4.04
2022-12-14T00:47:51.530Z,-4.06
2022-12-14T00:50:21.105Z,-4.05
2022-12-14T00:52:50.681Z,-4.07
2022-12-14T00:55:20.291Z,-4.07
2022-12-14T00:57:52.525Z,-4.06
2022-12-14T01:00:22.307Z,-4.08
2022-12-14T01:02:51.836Z,-4.08
2022-12-14T01:05:21.666Z,-4.12
2022-12-14T01:07:51.313Z,-4.10
2022-12-14T01:10:20.881Z,-4.11
2022-12-14T01:12:53.054Z,-4.13
2022-12-14T01:15:22.706Z,-4.12
2022-12-14T01:17:53.815Z,-4.13
2022-12-14T01:20:23.510Z,-4.12
2022-12-14T01:22:56.774Z,-4.13
2022-12-14T01:25:26.529Z,-4.14
2022-12-14T01:27:58.746Z,-4.16
2022-12-14T01:30:28.426Z,-4.14
2022-12-14T01:32:58.007Z,-4.18
2022-12-14T01:35:27.625Z,-4.19
2022-12-14T01:37:58.570Z,-4.20
2022-12-14T01:40:28.239Z,-4.22
2022-12-14T01:43:00.375Z,-4.22
2022-12-14T01:45:30.234Z,-4.22
2022-12-14T01:48:01.651Z,-4.23
2022-12-14T01:50:33.650Z,-4.23
2022-12-14T01:53:05.218Z,-4.24
2022-12-14T01:55:36.595Z,-4.26
2022-12-14T01:58:10.959Z,-4.26
2022-12-14T02:00:41.205Z,-4.27
2022-12-14T02:03:13.456Z,-4.28
2022-12-14T02:05:45.904Z,-4.30
2022-12-14T02:08:16.132Z,-4.34
2022-12-14T02:10:47.111Z,-4.33
2022-12-14T02:13:22.458Z,-4.38
2022-12-14T02:15:52.218Z,-4.42
2022-12-14T02:18:24.050Z,-4.46
2022-12-14T02:21:10.569Z,-4.45
2022-12-14T02:24:06.231Z,-4.47
2022-12-14T02:26:56.701Z,-4.47
2022-12-14T02:30:07.753Z,-4.51
2022-12-14T02:33:06.701Z,-4.56
2022-12-14T02:35:41.823Z,-4.57
2022-12-14T02:38:20.761Z,-4.59
2022-12-14T02:41:00.800Z,-4.59
2022-12-14T02:43:34.113Z,-4.64
2022-12-14T02:46:09.347Z,-4.65
2022-12-14T02:48:44.072Z,-4.68
2022-12-14T02:51:30.314Z,-4.71
2022-12-14T02:54:03.788Z,-4.69
2022-12-14T02:56:38.499Z,-4.72
2022-12-14T02:59:10.786Z,-4.75
2022-12-14T03:01:41.874Z,-4.76
2022-12-14T03:04:19.633Z,-4.79
2022-12-14T03:06:57.961Z,-4.80
2022-12-14T03:09:28.751Z,-4.81
2022-12-14T03:11:59.931Z,-4.82
2022-12-14T03:14:32.654Z,-4.84
2022-12-14T03:17:06.341Z,-4.86
2022-12-14T03:19:40.881Z,-4.87
2022-12-14T03:22:12.485Z,-4.88
2022-12-14T03:24:44.570Z,-4.90
2022-12-14T03:27:16.961Z,-4.88
2022-12-14T03:29:49.987Z,-4.86
2022-12-14T03:32:21.600Z,-4.89
2022-12-14T03:34:56.978Z,-4.91
2022-12-14T03:37:31.917Z,-4.91
2022-12-14T03:40:01.640Z,-4.90
2022-12-14T03:42:36.200Z,-4.93
2022-12-14T03:45:07.992Z,-4.92
2022-12-14T03:47:51.982Z,-4.94
2022-12-14T03:50:27.310Z,-4.94
2022-12-14T03:53:01.401Z,-4.93
2022-12-14T03:55:36.270Z,-4.93
2022-12-14T03:58:19.144Z,-4.89
2022-12-14T04:00:53.287Z,-4.91
2022-12-14T04:03:29.920Z,-4.95
2022-12-14T04:06:05.742Z,-4.94
2022-12-14T04:08:41.773Z,-4.93
2022-12-14T04:11:26.233Z,-4.91
2022-12-14T04:14:13.441Z,-4.91
2022-12-14T04:16:56.820Z,-4.89
2022-12-14T04:19:30.170Z,-4.84
2022-12-14T04:22:05.621Z,-4.86
2022-12-14T04:24:52.959Z,-4.86
2022-12-14T04:27:28.663Z,-4.85
2022-12-14T04:29:56.474Z,-4.87
2022-12-14T04:32:29.796Z,-4.86
2022-12-14T04:35:03.428Z,-4.85
2022-12-14T04:37:38.841Z,-4.83
2022-12-14T04:40:11.287Z,-4.83
2022-12-14T04:42:46.961Z,-4.83
2022-12-14T04:45:20.684Z,-4.85
2022-12-14T04:47:57.447Z,-4.78
2022-12-14T04:50:30.116Z,-4.81
2022-12-14T04:53:06.734Z,-4.84
2022-12-14T04:55:38.485Z,-4.83
2022-12-14T04:58:12.901Z,-4.77
2022-12-14T05:00:51.863Z,-4.75
2022-12-14T05:03:27.287Z,-4.75
2022-12-14T05:06:07.930Z,-4.76
2022-12-14T05:08:59.170Z,-4.74
2022-12-14T05:14:25.209Z,-4.75
2022-12-14T05:16:54.974Z,-4.73
2022-12-14T05:19:26.741Z,-4.72
2022-12-14T05:21:57.059Z,-4.71
2022-12-14T05:24:29.269Z,-4.71
2022-12-14T05:26:58.926Z,-4.71
2022-12-14T05:29:28.503Z,-4.71
2022-12-14T05:31:58.180Z,-4.68
2022-12-14T05:34:27.787Z,-4.69
2022-12-14T05:36:58.149Z,-4.70
2022-12-14T05:39:30.482Z,-4.68
2022-12-14T05:42:00.142Z,-4.66
2022-12-14T05:44:30.123Z,-4.65
2022-12-14T05:46:59.751Z,-4.63
2022-12-14T05:49:29.331Z,-4.66
2022-12-14T05:51:58.894Z,-4.62
2022-12-14T05:54:31.188Z,-4.62
2022-12-14T05:57:01.069Z,-4.57
2022-12-14T05:59:30.981Z,-4.57
2022-12-14T06:02:00.816Z,-4.57
2022-12-14T06:04:31.015Z,-4.56
2022-12-14T06:07:00.700Z,-4.55
2022-12-14T06:09:32.875Z,-4.56
2022-12-14T06:12:02.516Z,-4.56
2022-12-14T06:14:32.093Z,-4.54
2022-12-14T06:17:01.695Z,-4.57
2022-12-14T06:19:31.266Z,-4.59
2022-12-14T06:22:01.325Z,-4.57
2022-12-14T06:24:33.701Z,-4.56
2022-12-14T06:27:03.462Z,-4.54
2022-12-14T06:29:33.034Z,-4.52
2022-12-14T06:32:04.141Z,-4.51
2022-12-14T06:34:38.463Z,-4.48
2022-12-14T06:37:08.972Z,-4.47
2022-12-14T06:39:41.313Z,-4.45
2022-12-14T06:42:11.504Z,-4.44
2022-12-14T06:44:41.190Z,-4.41
2022-12-14T06:47:10.766Z,-4.42
2022-12-14T06:49:40.349Z,-4.42
2022-12-14T06:52:09.961Z,-4.39
2022-12-14T06:54:42.115Z,-4.36
2022-12-14T06:57:11.761Z,-4.38
2022-12-14T06:59:41.298Z,-4.35
2022-12-14T07:02:11.745Z,-4.33
2022-12-14T07:04:41.362Z,-4.33
2022-12-14T07:07:11.012Z,-4.30
2022-12-14T07:09:43.932Z,-4.31
2022-12-14T07:12:13.630Z,-4.31
2022-12-14T07:14:43.166Z,-4.25
2022-12-14T07:17:12.803Z,-4.23
2022-12-14T07:19:42.368Z,-4.23
2022-12-14T07:22:12.232Z,-4.20
2022-12-14T07:24:44.478Z,-4.19
2022-12-14T07:27:14.185Z,-4.15
2022-12-14T07:29:44.829Z,-4.13
2022-12-14T07:32:14.467Z,-4.12
2022-12-14T07:34:44.105Z,-4.12
2022-12-14T07:37:13.777Z,-4.10
2022-12-14T07:39:46.000Z,-4.09
2022-12-14T07:42:15.830Z,-4.11
2022-12-14T07:44:49.910Z,-4.13
2022-12-14T07:47:19.527Z,-4.10
2022-12-14T07:49:49.114Z,-4.06
2022-12-14T07:52:18.760Z,-4.07
2022-12-14T07:54:51.315Z,-4.09
2022-12-14T07:57:20.910Z,-4.06
2022-12-14T07:59:55.758Z,-4.06
2022-12-14T08:02:27.201Z,-4.04
2022-12-14T08:04:56.913Z,-4.00
2022-12-14T08:07:26.620Z,-3.98
2022-12-14T08:09:58.836Z,-3.97
2022-12-14T08:12:28.479Z,-3.95
2022-12-14T08:14:58.240Z,-3.94
2022-12-14T08:17:27.847Z,-3.92
2022-12-14T08:19:57.495Z,-3.88
2022-12-14T08:22:27.103Z,-3.88
2022-12-14T08:24:59.481Z,-3.85
2022-12-14T08:27:29.047Z,-3.85
2022-12-14T08:29:58.615Z,-3.83
2022-12-14T08:32:33.917Z,-3.83
2022-12-14T08:35:03.982Z,-3.81
2022-12-14T08:37:33.626Z,-3.78
2022-12-14T08:40:06.200Z,-3.76
2022-12-14T08:42:35.871Z,-3.70
2022-12-14T08:45:05.483Z,-3.68
2022-12-14T08:47:35.078Z,-3.63
2022-12-14T08:50:04.677Z,-3.65
2022-12-14T08:52:34.731Z,-3.62
2022-12-14T08:55:07.829Z,-3.59
2022-12-14T08:57:37.520Z,-3.56
2022-12-14T09:00:08.852Z,-3.52
2022-12-14T09:02:38.753Z,-3.47
2022-12-14T09:05:09.947Z,-3.44
2022-12-14T09:07:39.643Z,-3.32
2022-12-14T09:10:12.673Z,-3.35
2022-12-14T09:12:42.400Z,-3.34
2022-12-14T09:15:12.683Z,-3.31
2022-12-14T09:17:42.377Z,-3.31
2022-12-14T09:20:13.679Z,-3.29
2022-12-14T09:22:43.433Z,-3.26
2022-12-14T09:25:15.707Z,-3.23
2022-12-14T09:27:45.299Z,-3.16
2022-12-14T09:30:15.228Z,-3.08
2022-12-14T09:32:46.527Z,-3.04
2022-12-14T09:35:20.470Z,-3.02
2022-12-14T09:37:50.080Z,-2.99
2022-12-14T09:40:23.232Z,-2.96
2022-12-14T09:42:58.346Z,-2.91
2022-12-14T09:45:31.077Z,-2.88
2022-12-14T09:48:05.107Z,-2.80
2022-12-14T09:50:35.001Z,-2.76
2022-12-14T09:53:05.629Z,-2.75
2022-12-14T09:55:39.603Z,-2.72
2022-12-14T09:58:14.931Z,-2.71
2022-12-14T10:00:53.413Z,-2.70
2022-12-14T10:03:44.264Z,-2.68
2022-12-14T10:06:36.464Z,-2.62
2022-12-14T10:09:13.597Z,-2.63
2022-12-14T10:11:52.295Z,-2.63
2022-12-14T10:14:26.279Z,-2.65
2022-12-14T10:17:02.189Z,-2.65
2022-12-14T10:19:39.411Z,-2.62
2022-12-14T10:22:14.301Z,-2.62
2022-12-14T10:24:46.480Z,-2.60
2022-12-14T10:27:24.413Z,-2.58
2022-12-14T10:30:04.116Z,-2.54
2022-12-14T10:32:37.529Z,-2.55
2022-12-14T10:35:17.690Z,-2.54
2022-12-14T10:37:48.773Z,-2.46
2022-12-14T10:40:32.962Z,-2.47
2022-12-14T10:43:23.208Z,-2.40
2022-12-14T10:45:57.472Z,-2.35
2022-12-14T10:48:40.623Z,-2.27
2022-12-14T10:51:12.264Z,-2.21
2022-12-14T10:53:47.784Z,-2.20
2022-12-14T10:56:20.974Z,-2.15
2022-12-14T10:59:27.525Z,-2.12
2022-12-14T11:02:02.738Z,-2.07
2022-12-14T11:04:35.765Z,-2.03
2022-12-14T11:07:08.036Z,-1.98
2022-12-14T11:09:38.422Z,-1.93
2022-12-14T11:12:10.932Z,-1.89
2022-12-14T11:14:54.732Z,-1.86
2022-12-14T11:17:34.161Z,-1.79
2022-12-14T11:20:12.358Z,-1.76
2022-12-14T11:22:46.627Z,-1.73
2022-12-14T11:25:38.111Z,-1.65
2022-12-14T11:28:19.160Z,-1.59
2022-12-14T11:31:00.973Z,-1.54
2022-12-14T11:33:36.169Z,-1.46
2022-12-14T11:36:06.317Z,-1.42
2022-12-14T11:38:36.424Z,-1.23
2022-12-14T11:41:11.457Z,-1.30
2022-12-14T11:43:41.966Z,-1.25
2022-12-14T11:46:14.334Z,-1.22
2022-12-14T11:48:50.421Z,-1.17
2022-12-14T11:51:20.129Z,-1.14
2022-12-14T11:54:04.366Z,-1.06
2022-12-14T11:56:34.275Z,-1.04
2022-12-14T11:59:04.014Z,-0.97
2022-12-14T12:01:36.359Z,-0.99
2022-12-14T12:04:06.611Z,-0.96
2022-12-14T12:06:36.460Z,-0.93
2022-12-14T12:09:26.170Z,-0.89
2022-12-14T12:11:55.859Z,-0.87
2022-12-14T12:14:30.429Z,-0.84
2022-12-14T12:17:02.680Z,-0.83
2022-12-14T12:19:35.956Z,-0.78
2022-12-14T12:22:06.283Z,-0.76
2022-12-14T12:25:00.967Z,-0.73
2022-12-14T12:27:30.022Z,-0.67
2022-12-14T12:30:07.069Z,-0.59
2022-12-14T12:32:42.813Z,-0.58
2022-12-14T12:35:18.903Z,-0.53
2022-12-14T12:37:51.851Z,-0.47
2022-12-14T12:40:25.872Z,-0.46
2022-12-14T12:42:59.090Z,-0.42
2022-12-14T12:45:31.463Z,-0.35
2022-12-14T12:48:08.861Z,-0.28
2022-12-14T12:50:40.097Z,-0.20
2022-12-14T12:53:14.855Z,-0.13
2022-12-14T12:55:46.011Z,-0.11
2022-12-14T12:58:22.049Z,-0.07
2022-12-14T13:00:55.467Z,-0.04
2022-12-14T13:03:32.413Z,0.01
2022-12-14T13:06:11.139Z,0.03
2022-12-14T13:08:42.353Z,0.01
2022-12-14T13:11:26.277Z,0.04
2022-12-14T13:13:59.651Z,0.08
2022-12-14T13:16:33.253Z,0.17
2022-12-14T13:19:48.068Z,0.17
2022-12-14T13:22:05.904Z,0.15
2022-12-14T13:24:37.027Z,0.14
2022-12-14T13:27:32.620Z,0.18
2022-12-14T13:30:14.001Z,0.20
2022-12-14T13:32:57.120Z,0.23
2022-12-14T13:35:42.205Z,0.24
2022-12-14T13:38:33.562Z,0.27
2022-12-14T13:41:12.408Z,0.26
2022-12-14T13:43:54.679Z,0.30
2022-12-14T13:46:26.879Z,0.32
2022-12-14T13:48:58.843Z,0.31
2022-12-14T13:51:34.156Z,0.30
2022-12-14T13:54:05.435Z,0.32
2022-12-14T13:56:37.895Z,0.35
2022-12-14T13:59:09.260Z,0.38
2022-12-14T14:02:00.075Z,0.38
2022-12-14T14:04:30.934Z,0.35
2022-12-14T14:07:38.741Z,0.32
2022-12-14T14:10:09.492Z,0.37
2022-12-14T14:12:46.755Z,0.40
2022-12-14T14:15:35.184Z,0.44
2022-12-14T14:18:15.147Z,0.47
2022-12-14T14:20:47.223Z,0.49
2022-12-14T14:23:38.482Z,0.49
2022-12-14T14:26:22.455Z,0.50
2022-12-14T14:29:22.567Z,0.52
2022-12-14T14:31:54.783Z,0.48
2022-12-14T14:34:37.414Z,0.41
2022-12-14T14:37:17.617Z,0.32
2022-12-14T14:40:07.187Z,0.26
2022-12-14T14:42:52.164Z,0.20
2022-12-14T14:45:40.577Z,0.14
2022-12-14T14:48:21.295Z,0.08
2022-12-14T14:50:52.376Z,0.02
2022-12-14T14:53:33.483Z,-0.03
2022-12-14T14:56:40.193Z,-0.11
2022-12-14T14:59:51.156Z,-0.15
2022-12-14T15:02:32.816Z,-0.23
2022-12-14T15:05:40.314Z,-0.29
2022-12-14T15:07:52.233Z,-0.33
2022-12-14T15:10:29.690Z,-0.40
2022-12-14T15:13:04.841Z,-0.47
2022-12-14T15:15:39.299Z,-0.54
2022-12-14T15:18:25.263Z,-0.61
2022-12-14T15:21:01.073Z,-0.67
2022-12-14T15:23:36.039Z,-0.73
2022-12-14T15:26:11.534Z,-0.78
2022-12-14T15:28:49.952Z,-0.86
2022-12-14T15:31:19.617Z,-0.90
2022-12-14T15:33:49.582Z,-0.97
2022-12-14T15:36:20.298Z,-1.05
2022-12-14T15:38:57.882Z,-1.10
2022-12-14T15:41:29.054Z,-1.14
2022-12-14T15:44:01.443Z,-1.19
2022-12-14T15:46:33.433Z,-1.25
